sensor_id;sensor_type;location;lat;lon;timestamp;P1;durP1;ratioP1;P2;durP2;ratioP2
3757;SDS011;1894;51.038;13.692;2023-02-26T00:01:37;3.90;;;1.70;;
3757;SDS011;1894;51.038;13.692;2023-02-26T00:04:05;2.80;;;2.47;;
3757;SDS011;1894;51.038;13.692;2023-02-26T00:06:36;4.50;;;2.60;;
3757;SDS011;1894;51.038;13.692;2023-02-26T00:09:22;5.40;;;3.00;;
3757;SDS011;1894;51.038;13.692;2023-02-26T00:11:49;2.70;;;1.73;;
3757;SDS011;1894;51.038;13.692;2023-02-26T00:14:17;2.40;;;2.20;;
3757;SDS011;1894;51.038;13.692;2023-02-26T00:19:35;3.63;;;2.70;;
3757;SDS011;1894;51.038;13.692;2023-02-26T00:22:02;2.10;;;1.90;;
3757;SDS011;1894;51.038;13.692;2023-02-26T00:24:30;3.30;;;2.40;;
3757;SDS011;1894;51.038;13.692;2023-02-26T00:26:57;3.30;;;1.73;;
3757;SDS011;1894;51.038;13.692;2023-02-26T00:29:25;2.90;;;2.03;;
3757;SDS011;1894;51.038;13.692;2023-02-26T00:31:53;6.23;;;1.53;;
3757;SDS011;1894;51.038;13.692;2023-02-26T00:34:21;2.67;;;2.03;;
3757;SDS011;1894;51.038;13.692;2023-02-26T00:39:47;1.63;;;1.53;;
3757;SDS011;1894;51.038;13.692;2023-02-26T00:42:55;1.47;;;1.37;;
3757;SDS011;1894;51.038;13.692;2023-02-26T00:45:23;4.97;;;1.80;;
3757;SDS011;1894;51.038;13.692;2023-02-26T00:50:58;2.30;;;1.70;;
3757;SDS011;1894;51.038;13.692;2023-02-26T00:53:33;2.57;;;1.60;;
3757;SDS011;1894;51.038;13.692;2023-02-26T00:56:10;5.03;;;1.60;;
3757;SDS011;1894;51.038;13.692;2023-02-26T00:58:37;1.60;;;1.50;;
3757;SDS011;1894;51.038;13.692;2023-02-26T01:01:04;1.80;;;1.47;;
3757;SDS011;1894;51.038;13.692;2023-02-26T01:03:32;2.43;;;1.70;;
3757;SDS011;1894;51.038;13.692;2023-02-26T01:05:59;1.90;;;1.70;;
3757;SDS011;1894;51.038;13.692;2023-02-26T01:08:30;2.63;;;1.83;;
3757;SDS011;1894;51.038;13.692;2023-02-26T01:11:06;4.13;;;1.77;;
3757;SDS011;1894;51.038;13.692;2023-02-26T01:13:34;2.10;;;1.77;;
3757;SDS011;1894;51.038;13.692;2023-02-26T01:16:03;1.70;;;1.60;;
3757;SDS011;1894;51.038;13.692;2023-02-26T01:18:40;2.30;;;1.77;;
3757;SDS011;1894;51.038;13.692;2023-02-26T01:21:15;2.03;;;1.90;;
3757;SDS011;1894;51.038;13.692;2023-02-26T01:23:50;4.30;;;2.17;;
3757;SDS011;1894;51.038;13.692;2023-02-26T01:26:20;1.63;;;1.53;;
3757;SDS011;1894;51.038;13.692;2023-02-26T01:28:52;5.63;;;2.43;;
3757;SDS011;1894;51.038;13.692;2023-02-26T01:34:13;2.63;;;1.83;;
3757;SDS011;1894;51.038;13.692;2023-02-26T01:36:59;2.67;;;2.47;;
3757;SDS011;1894;51.038;13.692;2023-02-26T01:42:44;2.33;;;1.57;;
3757;SDS011;1894;51.038;13.692;2023-02-26T01:45:19;8.33;;;2.83;;
3757;SDS011;1894;51.038;13.692;2023-02-26T01:47:59;3.53;;;2.93;;
3757;SDS011;1894;51.038;13.692;2023-02-26T01:50:33;2.60;;;2.40;;
3757;SDS011;1894;51.038;13.692;2023-02-26T01:53:22;2.37;;;2.17;;
3757;SDS011;1894;51.038;13.692;2023-02-26T01:55:54;2.90;;;2.67;;
3757;SDS011;1894;51.038;13.692;2023-02-26T01:58:33;3.27;;;2.97;;
3757;SDS011;1894;51.038;13.692;2023-02-26T02:01:02;4.87;;;3.20;;
3757;SDS011;1894;51.038;13.692;2023-02-26T02:03:31;6.87;;;3.17;;
3757;SDS011;1894;51.038;13.692;2023-02-26T02:06:05;3.00;;;2.30;;
3757;SDS011;1894;51.038;13.692;2023-02-26T02:08:42;4.53;;;2.57;;
3757;SDS011;1894;51.038;13.692;2023-02-26T02:11:10;4.40;;;3.10;;
3757;SDS011;1894;51.038;13.692;2023-02-26T02:13:56;3.03;;;2.77;;
3757;SDS011;1894;51.038;13.692;2023-02-26T02:16:58;2.80;;;2.40;;
3757;SDS011;1894;51.038;13.692;2023-02-26T02:23:26;7.43;;;3.10;;
3757;SDS011;1894;51.038;13.692;2023-02-26T02:34:39;5.77;;;2.70;;
3757;SDS011;1894;51.038;13.692;2023-02-26T02:37:35;3.77;;;2.40;;
3757;SDS011;1894;51.038;13.692;2023-02-26T02:40:15;2.83;;;2.63;;
3757;SDS011;1894;51.038;13.692;2023-02-26T02:42:53;2.60;;;2.40;;
3757;SDS011;1894;51.038;13.692;2023-02-26T02:49:00;3.40;;;2.60;;
3757;SDS011;1894;51.038;13.692;2023-02-26T02:51:32;2.60;;;2.40;;
3757;SDS011;1894;51.038;13.692;2023-02-26T02:57:12;5.53;;;2.83;;
3757;SDS011;1894;51.038;13.692;2023-02-26T02:59:48;2.63;;;2.43;;
3757;SDS011;1894;51.038;13.692;2023-02-26T03:05:12;2.50;;;2.30;;
3757;SDS011;1894;51.038;13.692;2023-02-26T03:07:43;3.80;;;3.50;;
3757;SDS011;1894;51.038;13.692;2023-02-26T03:10:22;3.07;;;2.80;;
3757;SDS011;1894;51.038;13.692;2023-02-26T03:12:49;2.90;;;2.70;;
3757;SDS011;1894;51.038;13.692;2023-02-26T03:15:17;3.63;;;3.20;;
3757;SDS011;1894;51.038;13.692;2023-02-26T03:18:22;2.43;;;2.23;;
3757;SDS011;1894;51.038;13.692;2023-02-26T03:21:30;2.93;;;2.63;;
3757;SDS011;1894;51.038;13.692;2023-02-26T03:25:07;3.07;;;2.77;;
3757;SDS011;1894;51.038;13.692;2023-02-26T03:27:50;8.00;;;3.20;;
3757;SDS011;1894;51.038;13.692;2023-02-26T03:30:43;3.43;;;2.77;;
3757;SDS011;1894;51.038;13.692;2023-02-26T03:44:44;3.50;;;2.90;;
3757;SDS011;1894;51.038;13.692;2023-02-26T03:47:18;3.60;;;3.27;;
3757;SDS011;1894;51.038;13.692;2023-02-26T03:49:58;3.77;;;2.93;;
3757;SDS011;1894;51.038;13.692;2023-02-26T03:52:31;5.23;;;2.87;;
3757;SDS011;1894;51.038;13.692;2023-02-26T03:55:17;3.57;;;2.70;;
3757;SDS011;1894;51.038;13.692;2023-02-26T03:58:04;5.20;;;3.10;;
3757;SDS011;1894;51.038;13.692;2023-02-26T04:00:51;3.00;;;2.70;;
3757;SDS011;1894;51.038;13.692;2023-02-26T04:06:16;8.13;;;3.77;;
3757;SDS011;1894;51.038;13.692;2023-02-26T04:08:45;3.10;;;2.80;;
3757;SDS011;1894;51.038;13.692;2023-02-26T04:11:14;3.10;;;2.80;;
3757;SDS011;1894;51.038;13.692;2023-02-26T04:13:45;2.97;;;2.63;;
3757;SDS011;1894;51.038;13.692;2023-02-26T04:16:13;2.70;;;2.50;;
3757;SDS011;1894;51.038;13.692;2023-02-26T04:18:41;3.83;;;3.30;;
3757;SDS011;1894;51.038;13.692;2023-02-26T04:21:12;4.03;;;2.50;;
3757;SDS011;1894;51.038;13.692;2023-02-26T04:23:42;4.50;;;2.97;;
3757;SDS011;1894;51.038;13.692;2023-02-26T04:26:10;4.83;;;3.03;;
3757;SDS011;1894;51.038;13.692;2023-02-26T04:28:40;4.20;;;2.30;;
3757;SDS011;1894;51.038;13.692;2023-02-26T04:31:08;3.30;;;2.77;;
3757;SDS011;1894;51.038;13.692;2023-02-26T04:33:37;3.93;;;2.70;;
3757;SDS011;1894;51.038;13.692;2023-02-26T04:36:04;3.17;;;2.87;;
3757;SDS011;1894;51.038;13.692;2023-02-26T04:38:32;4.90;;;3.40;;
3757;SDS011;1894;51.038;13.692;2023-02-26T04:41:00;3.40;;;2.70;;
3757;SDS011;1894;51.038;13.692;2023-02-26T04:43:27;2.17;;;2.00;;
3757;SDS011;1894;51.038;13.692;2023-02-26T04:46:17;5.90;;;2.53;;
3757;SDS011;1894;51.038;13.692;2023-02-26T04:48:45;2.77;;;2.40;;
3757;SDS011;1894;51.038;13.692;2023-02-26T04:51:12;2.87;;;2.60;;
3757;SDS011;1894;51.038;13.692;2023-02-26T04:53:40;2.57;;;2.37;;
3757;SDS011;1894;51.038;13.692;2023-02-26T04:56:07;3.80;;;1.87;;
3757;SDS011;1894;51.038;13.692;2023-02-26T04:58:35;2.60;;;1.83;;
3757;SDS011;1894;51.038;13.692;2023-02-26T05:01:07;2.93;;;2.10;;
3757;SDS011;1894;51.038;13.692;2023-02-26T05:03:34;2.60;;;1.87;;
3757;SDS011;1894;51.038;13.692;2023-02-26T05:06:02;3.77;;;2.13;;
3757;SDS011;1894;51.038;13.692;2023-02-26T05:08:30;2.30;;;2.10;;
3757;SDS011;1894;51.038;13.692;2023-02-26T05:10:57;2.70;;;1.53;;
3757;SDS011;1894;51.038;13.692;2023-02-26T05:13:24;2.67;;;1.57;;
3757;SDS011;1894;51.038;13.692;2023-02-26T05:15:52;1.50;;;1.40;;
3757;SDS011;1894;51.038;13.692;2023-02-26T05:18:21;1.43;;;1.33;;
3757;SDS011;1894;51.038;13.692;2023-02-26T05:20:52;2.73;;;1.87;;
3757;SDS011;1894;51.038;13.692;2023-02-26T05:23:21;3.03;;;1.40;;
3757;SDS011;1894;51.038;13.692;2023-02-26T05:25:48;3.10;;;1.63;;
3757;SDS011;1894;51.038;13.692;2023-02-26T05:28:16;3.10;;;1.40;;
3757;SDS011;1894;51.038;13.692;2023-02-26T05:30:43;1.67;;;1.57;;
3757;SDS011;1894;51.038;13.692;2023-02-26T05:33:10;2.53;;;1.77;;
3757;SDS011;1894;51.038;13.692;2023-02-26T05:35:38;1.60;;;1.50;;
3757;SDS011;1894;51.038;13.692;2023-02-26T05:38:05;2.90;;;1.83;;
3757;SDS011;1894;51.038;13.692;2023-02-26T05:40:32;3.53;;;2.17;;
3757;SDS011;1894;51.038;13.692;2023-02-26T05:42:59;2.10;;;1.90;;
3757;SDS011;1894;51.038;13.692;2023-02-26T05:45:26;2.73;;;2.10;;
3757;SDS011;1894;51.038;13.692;2023-02-26T05:47:53;2.83;;;2.47;;
3757;SDS011;1894;51.038;13.692;2023-02-26T05:50:20;1.93;;;1.80;;
3757;SDS011;1894;51.038;13.692;2023-02-26T05:52:47;3.47;;;2.60;;
3757;SDS011;1894;51.038;13.692;2023-02-26T05:55:15;2.90;;;2.10;;
3757;SDS011;1894;51.038;13.692;2023-02-26T05:57:42;5.17;;;2.20;;
3757;SDS011;1894;51.038;13.692;2023-02-26T06:00:10;5.40;;;2.23;;
3757;SDS011;1894;51.038;13.692;2023-02-26T06:02:39;4.40;;;2.63;;
3757;SDS011;1894;51.038;13.692;2023-02-26T06:05:07;2.93;;;2.30;;
3757;SDS011;1894;51.038;13.692;2023-02-26T06:07:35;2.83;;;2.27;;
3757;SDS011;1894;51.038;13.692;2023-02-26T06:10:02;5.07;;;2.10;;
3757;SDS011;1894;51.038;13.692;2023-02-26T06:12:30;3.73;;;2.30;;
3757;SDS011;1894;51.038;13.692;2023-02-26T06:14:58;6.03;;;2.80;;
3757;SDS011;1894;51.038;13.692;2023-02-26T06:17:25;5.20;;;2.60;;
3757;SDS011;1894;51.038;13.692;2023-02-26T06:19:53;5.30;;;2.60;;
3757;SDS011;1894;51.038;13.692;2023-02-26T06:22:20;5.70;;;2.90;;
3757;SDS011;1894;51.038;13.692;2023-02-26T06:24:47;6.53;;;2.43;;
3757;SDS011;1894;51.038;13.692;2023-02-26T06:27:15;4.23;;;3.43;;
3757;SDS011;1894;51.038;13.692;2023-02-26T06:29:43;5.07;;;2.40;;
3757;SDS011;1894;51.038;13.692;2023-02-26T06:32:10;2.67;;;2.43;;
3757;SDS011;1894;51.038;13.692;2023-02-26T06:34:37;13.13;;;3.10;;
3757;SDS011;1894;51.038;13.692;2023-02-26T06:37:05;5.13;;;2.30;;
3757;SDS011;1894;51.038;13.692;2023-02-26T06:39:32;6.20;;;2.90;;
3757;SDS011;1894;51.038;13.692;2023-02-26T06:41:59;5.53;;;2.20;;
3757;SDS011;1894;51.038;13.692;2023-02-26T06:44:27;3.90;;;2.23;;
3757;SDS011;1894;51.038;13.692;2023-02-26T06:46:54;4.90;;;2.13;;
3757;SDS011;1894;51.038;13.692;2023-02-26T06:49:21;3.20;;;1.90;;
3757;SDS011;1894;51.038;13.692;2023-02-26T06:51:48;1.90;;;1.80;;
3757;SDS011;1894;51.038;13.692;2023-02-26T06:54:15;3.27;;;1.97;;
3757;SDS011;1894;51.038;13.692;2023-02-26T06:56:42;4.70;;;3.30;;
3757;SDS011;1894;51.038;13.692;2023-02-26T06:59:09;6.03;;;1.87;;
3757;SDS011;1894;51.038;13.692;2023-02-26T07:01:36;4.03;;;2.57;;
3757;SDS011;1894;51.038;13.692;2023-02-26T07:04:04;8.17;;;2.60;;
3757;SDS011;1894;51.038;13.692;2023-02-26T07:06:31;2.60;;;2.00;;
3757;SDS011;1894;51.038;13.692;2023-02-26T07:08:58;9.33;;;2.43;;
3757;SDS011;1894;51.038;13.692;2023-02-26T07:11:26;6.07;;;2.47;;
3757;SDS011;1894;51.038;13.692;2023-02-26T07:13:53;3.80;;;2.60;;
3757;SDS011;1894;51.038;13.692;2023-02-26T07:16:20;3.77;;;2.30;;
3757;SDS011;1894;51.038;13.692;2023-02-26T07:18:48;5.70;;;2.20;;
3757;SDS011;1894;51.038;13.692;2023-02-26T07:21:15;7.73;;;2.00;;
3757;SDS011;1894;51.038;13.692;2023-02-26T07:23:42;6.53;;;3.03;;
3757;SDS011;1894;51.038;13.692;2023-02-26T07:26:09;2.87;;;2.30;;
3757;SDS011;1894;51.038;13.692;2023-02-26T07:28:36;5.20;;;1.60;;
3757;SDS011;1894;51.038;13.692;2023-02-26T07:31:03;2.00;;;1.60;;
3757;SDS011;1894;51.038;13.692;2023-02-26T07:33:31;3.93;;;1.90;;
3757;SDS011;1894;51.038;13.692;2023-02-26T07:36:00;3.13;;;1.47;;
3757;SDS011;1894;51.038;13.692;2023-02-26T07:38:27;2.50;;;2.13;;
3757;SDS011;1894;51.038;13.692;2023-02-26T07:40:54;3.50;;;1.43;;
3757;SDS011;1894;51.038;13.692;2023-02-26T07:43:22;2.70;;;2.23;;
3757;SDS011;1894;51.038;13.692;2023-02-26T07:45:50;3.07;;;1.37;;
3757;SDS011;1894;51.038;13.692;2023-02-26T07:48:19;5.07;;;1.23;;
3757;SDS011;1894;51.038;13.692;2023-02-26T07:50:46;3.10;;;2.13;;
3757;SDS011;1894;51.038;13.692;2023-02-26T07:53:13;2.23;;;1.23;;
3757;SDS011;1894;51.038;13.692;2023-02-26T07:55:40;5.03;;;2.43;;
3757;SDS011;1894;51.038;13.692;2023-02-26T07:58:07;2.67;;;1.40;;
3757;SDS011;1894;51.038;13.692;2023-02-26T08:00:35;2.70;;;1.63;;
3757;SDS011;1894;51.038;13.692;2023-02-26T08:03:02;6.43;;;1.40;;
3757;SDS011;1894;51.038;13.692;2023-02-26T08:05:29;6.80;;;1.90;;
3757;SDS011;1894;51.038;13.692;2023-02-26T08:07:56;5.73;;;1.93;;
3757;SDS011;1894;51.038;13.692;2023-02-26T08:10:24;7.33;;;1.53;;
3757;SDS011;1894;51.038;13.692;2023-02-26T08:12:51;3.60;;;1.70;;
3757;SDS011;1894;51.038;13.692;2023-02-26T08:15:18;2.13;;;1.30;;
3757;SDS011;1894;51.038;13.692;2023-02-26T08:17:45;5.20;;;1.47;;
3757;SDS011;1894;51.038;13.692;2023-02-26T08:20:12;2.70;;;2.03;;
3757;SDS011;1894;51.038;13.692;2023-02-26T08:22:41;8.07;;;1.77;;
3757;SDS011;1894;51.038;13.692;2023-02-26T08:25:08;4.57;;;1.77;;
3757;SDS011;1894;51.038;13.692;2023-02-26T08:27:35;3.40;;;1.17;;
3757;SDS011;1894;51.038;13.692;2023-02-26T08:30:03;1.83;;;1.20;;
3757;SDS011;1894;51.038;13.692;2023-02-26T08:32:31;3.73;;;1.30;;
3757;SDS011;1894;51.038;13.692;2023-02-26T08:34:58;2.13;;;1.00;;
3757;SDS011;1894;51.038;13.692;2023-02-26T08:37:25;3.10;;;1.17;;
3757;SDS011;1894;51.038;13.692;2023-02-26T08:39:52;1.93;;;1.27;;
3757;SDS011;1894;51.038;13.692;2023-02-26T08:42:20;2.50;;;1.30;;
3757;SDS011;1894;51.038;13.692;2023-02-26T08:44:47;2.97;;;1.23;;
3757;SDS011;1894;51.038;13.692;2023-02-26T08:47:14;3.73;;;1.57;;
3757;SDS011;1894;51.038;13.692;2023-02-26T08:49:53;3.10;;;1.37;;
3757;SDS011;1894;51.038;13.692;2023-02-26T08:52:20;4.20;;;1.10;;
3757;SDS011;1894;51.038;13.692;2023-02-26T08:54:47;4.60;;;1.50;;
3757;SDS011;1894;51.038;13.692;2023-02-26T08:57:14;1.97;;;0.90;;
3757;SDS011;1894;51.038;13.692;2023-02-26T08:59:42;3.40;;;1.20;;
3757;SDS011;1894;51.038;13.692;2023-02-26T09:02:10;5.93;;;1.10;;
3757;SDS011;1894;51.038;13.692;2023-02-26T09:04:40;5.20;;;1.10;;
3757;SDS011;1894;51.038;13.692;2023-02-26T09:07:08;2.10;;;1.03;;
3757;SDS011;1894;51.038;13.692;2023-02-26T09:09:35;4.30;;;1.27;;
3757;SDS011;1894;51.038;13.692;2023-02-26T09:12:02;4.67;;;1.70;;
3757;SDS011;1894;51.038;13.692;2023-02-26T09:14:30;4.37;;;1.60;;
3757;SDS011;1894;51.038;13.692;2023-02-26T09:16:57;2.37;;;0.90;;
3757;SDS011;1894;51.038;13.692;2023-02-26T09:19:24;3.37;;;0.97;;
3757;SDS011;1894;51.038;13.692;2023-02-26T09:21:51;2.67;;;1.23;;
3757;SDS011;1894;51.038;13.692;2023-02-26T09:24:18;1.97;;;1.40;;
3757;SDS011;1894;51.038;13.692;2023-02-26T09:26:45;5.70;;;1.20;;
3757;SDS011;1894;51.038;13.692;2023-02-26T09:29:13;3.13;;;0.97;;
3757;SDS011;1894;51.038;13.692;2023-02-26T09:31:40;0.97;;;0.73;;
3757;SDS011;1894;51.038;13.692;2023-02-26T09:34:08;1.73;;;0.80;;
3757;SDS011;1894;51.038;13.692;2023-02-26T09:36:37;2.83;;;0.90;;
3757;SDS011;1894;51.038;13.692;2023-02-26T09:39:04;4.53;;;0.90;;
3757;SDS011;1894;51.038;13.692;2023-02-26T09:41:45;2.93;;;0.90;;
3757;SDS011;1894;51.038;13.692;2023-02-26T09:44:24;2.03;;;0.80;;
3757;SDS011;1894;51.038;13.692;2023-02-26T09:50:13;2.57;;;1.30;;
3757;SDS011;1894;51.038;13.692;2023-02-26T09:55:57;1.90;;;0.70;;
3757;SDS011;1894;51.038;13.692;2023-02-26T09:58:50;8.03;;;1.30;;
3757;SDS011;1894;51.038;13.692;2023-02-26T10:01:30;3.57;;;1.30;;
3757;SDS011;1894;51.038;13.692;2023-02-26T10:07:53;3.07;;;1.23;;
3757;SDS011;1894;51.038;13.692;2023-02-26T10:11:04;5.40;;;2.73;;
3757;SDS011;1894;51.038;13.692;2023-02-26T10:13:53;4.20;;;1.03;;
3757;SDS011;1894;51.038;13.692;2023-02-26T10:16:51;3.43;;;1.10;;
3757;SDS011;1894;51.038;13.692;2023-02-26T10:19:28;2.97;;;1.00;;
3757;SDS011;1894;51.038;13.692;2023-02-26T10:22:20;3.87;;;0.93;;
3757;SDS011;1894;51.038;13.692;2023-02-26T10:25:04;1.90;;;0.80;;
3757;SDS011;1894;51.038;13.692;2023-02-26T10:27:47;3.37;;;1.13;;
3757;SDS011;1894;51.038;13.692;2023-02-26T10:34:34;3.13;;;0.90;;
3757;SDS011;1894;51.038;13.692;2023-02-26T10:43:29;6.57;;;1.73;;
3757;SDS011;1894;51.038;13.692;2023-02-26T10:51:49;2.53;;;0.70;;
3757;SDS011;1894;51.038;13.692;2023-02-26T10:57:20;3.27;;;1.10;;
3757;SDS011;1894;51.038;13.692;2023-02-26T10:59:54;3.23;;;0.90;;
3757;SDS011;1894;51.038;13.692;2023-02-26T11:02:41;2.03;;;0.93;;
3757;SDS011;1894;51.038;13.692;2023-02-26T11:05:25;0.90;;;0.70;;
3757;SDS011;1894;51.038;13.692;2023-02-26T11:08:08;1.33;;;1.10;;
3757;SDS011;1894;51.038;13.692;2023-02-26T11:10:44;1.63;;;0.90;;
3757;SDS011;1894;51.038;13.692;2023-02-26T11:13:28;2.50;;;0.80;;
3757;SDS011;1894;51.038;13.692;2023-02-26T11:16:03;2.30;;;0.70;;
3757;SDS011;1894;51.038;13.692;2023-02-26T11:18:38;1.20;;;0.73;;
3757;SDS011;1894;51.038;13.692;2023-02-26T11:21:18;4.13;;;0.87;;
3757;SDS011;1894;51.038;13.692;2023-02-26T11:23:52;5.07;;;1.00;;
3757;SDS011;1894;51.038;13.692;2023-02-26T11:26:34;1.80;;;0.83;;
3757;SDS011;1894;51.038;13.692;2023-02-26T11:29:03;2.07;;;1.10;;
3757;SDS011;1894;51.038;13.692;2023-02-26T11:31:31;1.43;;;0.70;;
3757;SDS011;1894;51.038;13.692;2023-02-26T11:34:03;1.33;;;1.00;;
3757;SDS011;1894;51.038;13.692;2023-02-26T11:36:36;3.43;;;1.00;;
3757;SDS011;1894;51.038;13.692;2023-02-26T11:42:04;1.83;;;0.83;;
3757;SDS011;1894;51.038;13.692;2023-02-26T11:44:42;4.77;;;1.00;;
3757;SDS011;1894;51.038;13.692;2023-02-26T11:49:50;10.10;;;0.80;;
3757;SDS011;1894;51.038;13.692;2023-02-26T11:55:31;1.47;;;0.80;;
3757;SDS011;1894;51.038;13.692;2023-02-26T11:58:14;2.40;;;0.63;;
3757;SDS011;1894;51.038;13.692;2023-02-26T12:00:45;2.60;;;0.80;;
3757;SDS011;1894;51.038;13.692;2023-02-26T12:03:16;6.27;;;2.60;;
3757;SDS011;1894;51.038;13.692;2023-02-26T12:05:49;4.80;;;1.40;;
3757;SDS011;1894;51.038;13.692;2023-02-26T12:20:20;0.77;;;0.50;;
3757;SDS011;1894;51.038;13.692;2023-02-26T12:26:30;4.30;;;1.10;;
3757;SDS011;1894;51.038;13.692;2023-02-26T12:32:18;1.70;;;0.90;;
3757;SDS011;1894;51.038;13.692;2023-02-26T12:35:14;1.33;;;0.97;;
3757;SDS011;1894;51.038;13.692;2023-02-26T12:44:18;2.10;;;0.80;;
3757;SDS011;1894;51.038;13.692;2023-02-26T12:47:18;2.40;;;0.80;;
3757;SDS011;1894;51.038;13.692;2023-02-26T13:02:33;3.90;;;0.90;;
3757;SDS011;1894;51.038;13.692;2023-02-26T13:05:46;3.50;;;1.00;;
3757;SDS011;1894;51.038;13.692;2023-02-26T13:12:13;1.93;;;0.70;;
3757;SDS011;1894;51.038;13.692;2023-02-26T13:21:26;4.40;;;2.07;;
3757;SDS011;1894;51.038;13.692;2023-02-26T13:26:40;2.50;;;0.97;;
3757;SDS011;1894;51.038;13.692;2023-02-26T13:29:20;3.70;;;0.80;;
3757;SDS011;1894;51.038;13.692;2023-02-26T13:31:58;4.20;;;1.10;;
3757;SDS011;1894;51.038;13.692;2023-02-26T13:34:41;2.93;;;1.13;;
3757;SDS011;1894;51.038;13.692;2023-02-26T13:37:36;1.63;;;0.80;;
3757;SDS011;1894;51.038;13.692;2023-02-26T13:44:41;1.97;;;0.63;;
3757;SDS011;1894;51.038;13.692;2023-02-26T13:47:00;3.17;;;0.93;;
3757;SDS011;1894;51.038;13.692;2023-02-26T13:49:49;1.97;;;0.70;;
3757;SDS011;1894;51.038;13.692;2023-02-26T13:52:28;1.73;;;0.80;;
3757;SDS011;1894;51.038;13.692;2023-02-26T13:55:00;2.60;;;1.20;;
3757;SDS011;1894;51.038;13.692;2023-02-26T14:00:26;6.00;;;1.10;;
3757;SDS011;1894;51.038;13.692;2023-02-26T14:05:54;2.47;;;0.90;;
3757;SDS011;1894;51.038;13.692;2023-02-26T14:14:18;4.83;;;1.27;;
3757;SDS011;1894;51.038;13.692;2023-02-26T14:19:38;3.00;;;1.00;;
3757;SDS011;1894;51.038;13.692;2023-02-26T14:27:35;1.60;;;1.00;;
3757;SDS011;1894;51.038;13.692;2023-02-26T14:35:41;3.13;;;1.03;;
3757;SDS011;1894;51.038;13.692;2023-02-26T14:38:23;1.20;;;0.90;;
3757;SDS011;1894;51.038;13.692;2023-02-26T14:41:05;6.73;;;2.43;;
3757;SDS011;1894;51.038;13.692;2023-02-26T14:44:14;4.40;;;1.30;;
3757;SDS011;1894;51.038;13.692;2023-02-26T14:46:48;4.27;;;1.40;;
3757;SDS011;1894;51.038;13.692;2023-02-26T14:49:18;3.00;;;1.10;;
3757;SDS011;1894;51.038;13.692;2023-02-26T15:14:55;1.20;;;0.80;;
3757;SDS011;1894;51.038;13.692;2023-02-26T15:17:51;6.70;;;0.87;;
3757;SDS011;1894;51.038;13.692;2023-02-26T15:26:19;3.20;;;0.80;;
3757;SDS011;1894;51.038;13.692;2023-02-26T15:28:58;1.70;;;0.90;;
3757;SDS011;1894;51.038;13.692;2023-02-26T15:31:32;2.90;;;0.70;;
3757;SDS011;1894;51.038;13.692;2023-02-26T15:34:03;1.00;;;0.53;;
3757;SDS011;1894;51.038;13.692;2023-02-26T15:36:30;2.40;;;0.60;;
3757;SDS011;1894;51.038;13.692;2023-02-26T15:38:58;2.43;;;1.10;;
3757;SDS011;1894;51.038;13.692;2023-02-26T15:41:29;2.90;;;1.00;;
3757;SDS011;1894;51.038;13.692;2023-02-26T15:44:03;2.00;;;1.00;;
3757;SDS011;1894;51.038;13.692;2023-02-26T15:46:40;4.17;;;1.30;;
3757;SDS011;1894;51.038;13.692;2023-02-26T15:51:47;9.37;;;3.10;;
3757;SDS011;1894;51.038;13.692;2023-02-26T15:54:16;4.70;;;3.00;;
3757;SDS011;1894;51.038;13.692;2023-02-26T15:56:48;4.50;;;3.40;;
3757;SDS011;1894;51.038;13.692;2023-02-26T15:59:20;15.83;;;3.83;;
3757;SDS011;1894;51.038;13.692;2023-02-26T16:01:52;3.83;;;1.70;;
3757;SDS011;1894;51.038;13.692;2023-02-26T16:04:21;3.23;;;1.30;;
3757;SDS011;1894;51.038;13.692;2023-02-26T16:06:53;2.23;;;1.20;;
3757;SDS011;1894;51.038;13.692;2023-02-26T16:09:32;3.07;;;1.00;;
3757;SDS011;1894;51.038;13.692;2023-02-26T16:12:09;2.30;;;0.90;;
3757;SDS011;1894;51.038;13.692;2023-02-26T16:14:43;3.60;;;1.20;;
3757;SDS011;1894;51.038;13.692;2023-02-26T16:17:26;3.63;;;1.60;;
3757;SDS011;1894;51.038;13.692;2023-02-26T16:19:57;1.87;;;1.37;;
3757;SDS011;1894;51.038;13.692;2023-02-26T16:25:12;5.97;;;1.47;;
3757;SDS011;1894;51.038;13.692;2023-02-26T16:30:51;7.83;;;2.10;;
3757;SDS011;1894;51.038;13.692;2023-02-26T16:33:22;4.07;;;2.43;;
3757;SDS011;1894;51.038;13.692;2023-02-26T16:35:55;8.47;;;3.20;;
3757;SDS011;1894;51.038;13.692;2023-02-26T16:38:49;10.80;;;4.30;;
3757;SDS011;1894;51.038;13.692;2023-02-26T16:41:33;9.53;;;3.67;;
3757;SDS011;1894;51.038;13.692;2023-02-26T16:44:05;2.87;;;1.70;;
3757;SDS011;1894;51.038;13.692;2023-02-26T16:46:57;2.93;;;1.80;;
3757;SDS011;1894;51.038;13.692;2023-02-26T16:51:56;5.90;;;1.97;;
3757;SDS011;1894;51.038;13.692;2023-02-26T16:54:26;5.30;;;1.30;;
3757;SDS011;1894;51.038;13.692;2023-02-26T16:56:59;2.23;;;1.60;;
3757;SDS011;1894;51.038;13.692;2023-02-26T16:59:36;3.00;;;1.97;;
3757;SDS011;1894;51.038;13.692;2023-02-26T17:02:11;2.13;;;1.30;;
3757;SDS011;1894;51.038;13.692;2023-02-26T17:04:40;2.60;;;1.20;;
3757;SDS011;1894;51.038;13.692;2023-02-26T17:07:45;3.23;;;1.20;;
3757;SDS011;1894;51.038;13.692;2023-02-26T17:10:17;1.37;;;0.90;;
3757;SDS011;1894;51.038;13.692;2023-02-26T17:13:13;1.90;;;1.70;;
3757;SDS011;1894;51.038;13.692;2023-02-26T17:15:43;5.57;;;3.73;;
3757;SDS011;1894;51.038;13.692;2023-02-26T17:18:12;3.13;;;2.43;;
3757;SDS011;1894;51.038;13.692;2023-02-26T17:20:39;3.17;;;2.17;;
3757;SDS011;1894;51.038;13.692;2023-02-26T17:23:09;3.50;;;2.70;;
3757;SDS011;1894;51.038;13.692;2023-02-26T17:25:41;4.47;;;2.57;;
3757;SDS011;1894;51.038;13.692;2023-02-26T17:28:24;7.93;;;3.30;;
3757;SDS011;1894;51.038;13.692;2023-02-26T17:30:55;3.10;;;1.83;;
3757;SDS011;1894;51.038;13.692;2023-02-26T17:33:22;6.67;;;3.30;;
3757;SDS011;1894;51.038;13.692;2023-02-26T17:35:50;5.73;;;3.17;;
3757;SDS011;1894;51.038;13.692;2023-02-26T17:38:25;6.93;;;2.00;;
3757;SDS011;1894;51.038;13.692;2023-02-26T17:40:53;3.53;;;1.20;;
3757;SDS011;1894;51.038;13.692;2023-02-26T17:43:21;7.17;;;1.70;;
3757;SDS011;1894;51.038;13.692;2023-02-26T17:45:49;3.80;;;1.57;;
3757;SDS011;1894;51.038;13.692;2023-02-26T17:48:16;2.13;;;1.17;;
3757;SDS011;1894;51.038;13.692;2023-02-26T17:50:45;5.17;;;2.00;;
3757;SDS011;1894;51.038;13.692;2023-02-26T17:53:18;2.83;;;1.43;;
3757;SDS011;1894;51.038;13.692;2023-02-26T17:55:48;2.50;;;1.40;;
3757;SDS011;1894;51.038;13.692;2023-02-26T17:58:20;4.17;;;1.80;;
3757;SDS011;1894;51.038;13.692;2023-02-26T18:01:00;2.10;;;1.00;;
3757;SDS011;1894;51.038;13.692;2023-02-26T18:03:29;16.20;;;1.67;;
3757;SDS011;1894;51.038;13.692;2023-02-26T18:05:57;1.77;;;0.77;;
3757;SDS011;1894;51.038;13.692;2023-02-26T18:08:26;5.33;;;1.60;;
3757;SDS011;1894;51.038;13.692;2023-02-26T18:11:00;4.03;;;1.33;;
3757;SDS011;1894;51.038;13.692;2023-02-26T18:13:30;3.63;;;1.47;;
3757;SDS011;1894;51.038;13.692;2023-02-26T18:15:58;7.27;;;2.00;;
3757;SDS011;1894;51.038;13.692;2023-02-26T18:18:28;3.97;;;2.03;;
3757;SDS011;1894;51.038;13.692;2023-02-26T18:20:56;4.97;;;2.23;;
3757;SDS011;1894;51.038;13.692;2023-02-26T18:23:23;3.27;;;2.50;;
3757;SDS011;1894;51.038;13.692;2023-02-26T18:25:53;3.23;;;1.67;;
3757;SDS011;1894;51.038;13.692;2023-02-26T18:28:23;8.10;;;1.93;;
3757;SDS011;1894;51.038;13.692;2023-02-26T18:30:53;3.27;;;1.57;;
3757;SDS011;1894;51.038;13.692;2023-02-26T18:33:22;5.23;;;3.33;;
3757;SDS011;1894;51.038;13.692;2023-02-26T18:35:52;7.50;;;4.00;;
3757;SDS011;1894;51.038;13.692;2023-02-26T18:38:24;12.13;;;6.87;;
3757;SDS011;1894;51.038;13.692;2023-02-26T18:40:54;12.33;;;6.00;;
3757;SDS011;1894;51.038;13.692;2023-02-26T18:43:22;8.73;;;4.50;;
3757;SDS011;1894;51.038;13.692;2023-02-26T18:45:49;9.87;;;5.63;;
3757;SDS011;1894;51.038;13.692;2023-02-26T18:48:18;17.67;;;9.23;;
3757;SDS011;1894;51.038;13.692;2023-02-26T18:50:47;18.80;;;8.57;;
3757;SDS011;1894;51.038;13.692;2023-02-26T18:53:14;9.57;;;3.93;;
3757;SDS011;1894;51.038;13.692;2023-02-26T18:55:43;7.03;;;4.23;;
3757;SDS011;1894;51.038;13.692;2023-02-26T18:58:10;4.50;;;3.10;;
3757;SDS011;1894;51.038;13.692;2023-02-26T19:00:38;8.07;;;3.13;;
3757;SDS011;1894;51.038;13.692;2023-02-26T19:03:07;4.70;;;2.87;;
3757;SDS011;1894;51.038;13.692;2023-02-26T19:05:34;3.73;;;2.40;;